createdAt,value
2018-11-10T00:01:06.198Z,13.60
2018-11-10T00:03:34.683Z,15.60
2018-11-10T00:06:03.154Z,14.23
2018-11-10T00:08:31.619Z,11.83
2018-11-10T00:11:00.075Z,12.97
2018-11-10T00:13:28.550Z,12.97
2018-11-10T00:15:57.003Z,10.70
2018-11-10T00:18:25.462Z,13.40
2018-11-10T00:20:53.920Z,12.50
2018-11-10T00:23:22.362Z,13.00
2018-11-10T00:25:50.902Z,13.77
2018-11-10T00:28:19.360Z,17.67
2018-11-10T00:30:47.822Z,16.63
2018-11-10T00:33:16.278Z,11.27
2018-11-10T00:35:44.782Z,13.60
2018-11-10T00:38:13.258Z,11.70
2018-11-10T00:40:41.724Z,12.60
2018-11-10T00:43:10.199Z,19.97
2018-11-10T00:45:38.694Z,14.00
2018-11-10T00:48:07.254Z,13.00
2018-11-10T00:50:35.826Z,13.87
2018-11-10T00:53:04.311Z,15.53
2018-11-10T00:55:32.882Z,14.83
2018-11-10T00:58:01.378Z,17.07
2018-11-10T01:00:29.846Z,11.77
2018-11-10T01:02:58.303Z,13.80
2018-11-10T01:05:26.793Z,11.77
2018-11-10T01:07:55.238Z,11.37
2018-11-10T01:10:23.711Z,10.90
2018-11-10T01:12:52.179Z,10.43
2018-11-10T01:15:20.693Z,13.17
2018-11-10T01:17:49.111Z,8.10
2018-11-10T01:20:17.552Z,9.40
2018-11-10T01:22:46.011Z,13.60
2018-11-10T01:25:14.482Z,17.33
2018-11-10T01:27:42.971Z,9.30
2018-11-10T01:30:13.707Z,14.33
2018-11-10T01:32:42.922Z,10.90
2018-11-10T01:35:11.483Z,11.17
2018-11-10T01:37:39.958Z,13.17
2018-11-10T01:40:10.223Z,14.13
2018-11-10T01:42:38.691Z,12.63
2018-11-10T01:45:12.072Z,12.40
2018-11-10T01:47:40.747Z,12.23
2018-11-10T01:50:10.158Z,13.10
2018-11-10T01:52:38.638Z,14.07
2018-11-10T01:55:07.739Z,15.43
2018-11-10T01:57:36.274Z,15.03
2018-11-10T02:00:07.265Z,13.80
2018-11-10T02:02:35.714Z,13.53
2018-11-10T02:05:04.515Z,8.73
2018-11-10T02:07:33.062Z,13.07
2018-11-10T02:10:01.510Z,11.40
2018-11-10T02:12:29.955Z,8.60
2018-11-10T02:14:58.414Z,11.90
2018-11-10T02:17:26.862Z,9.57
2018-11-10T02:19:55.421Z,9.17
2018-11-10T02:22:23.955Z,12.10
2018-11-10T02:24:52.405Z,10.73
2018-11-10T02:27:23.742Z,10.50
2018-11-10T02:29:53.891Z,9.83
2018-11-10T02:32:22.394Z,10.17
2018-11-10T02:34:51.730Z,7.67
2018-11-10T02:37:20.185Z,12.80
2018-11-10T02:39:48.699Z,12.83
2018-11-10T02:42:17.170Z,11.20
2018-11-10T02:44:45.631Z,16.03
2018-11-10T02:47:14.090Z,14.83
2018-11-10T02:49:42.554Z,10.87
2018-11-10T02:52:11.011Z,13.50
2018-11-10T02:54:39.466Z,10.37
2018-11-10T02:57:07.920Z,10.80
2018-11-10T02:59:36.371Z,18.50
2018-11-10T03:02:04.892Z,11.53
2018-11-10T03:04:33.362Z,12.27
2018-11-10T03:07:01.834Z,16.90
2018-11-10T03:09:30.371Z,12.20
2018-11-10T03:11:58.830Z,14.20
2018-11-10T03:14:27.278Z,10.37
2018-11-10T03:16:55.729Z,15.00
2018-11-10T03:19:24.185Z,11.87
2018-11-10T03:21:52.658Z,14.77
2018-11-10T03:24:21.131Z,12.30
2018-11-10T03:26:49.590Z,15.40
2018-11-10T03:29:18.050Z,14.47
2018-11-10T03:31:46.514Z,12.30
2018-11-10T03:34:14.970Z,15.27
2018-11-10T03:36:43.454Z,15.60
2018-11-10T03:39:13.054Z,16.97
2018-11-10T03:41:41.564Z,14.03
2018-11-10T03:44:10.430Z,11.60
2018-11-10T03:46:38.898Z,12.87
2018-11-10T03:49:07.374Z,24.33
2018-11-10T03:51:35.848Z,15.90
2018-11-10T03:54:05.044Z,11.47
2018-11-10T03:56:33.508Z,12.33
2018-11-10T03:59:01.950Z,14.37
2018-11-10T04:01:30.410Z,15.10
2018-11-10T04:03:58.868Z,9.60
2018-11-10T04:06:27.335Z,10.90
2018-11-10T04:08:55.791Z,16.30
2018-11-10T04:11:24.418Z,11.20
2018-11-10T04:13:52.881Z,16.10
2018-11-10T04:16:21.341Z,11.13
2018-11-10T04:18:49.794Z,12.93
2018-11-10T04:21:18.261Z,13.07
2018-11-10T04:23:46.722Z,10.53
2018-11-10T04:26:15.174Z,11.93
2018-11-10T04:28:43.615Z,9.90
2018-11-10T04:31:12.074Z,10.53
2018-11-10T04:33:40.578Z,11.00
2018-11-10T04:36:09.058Z,9.80
2018-11-10T04:38:37.522Z,13.57
2018-11-10T04:41:06.275Z,12.97
2018-11-10T04:43:34.730Z,12.00
2018-11-10T04:46:03.286Z,15.03
2018-11-10T04:48:31.777Z,10.40
2018-11-10T04:51:00.251Z,10.73
2018-11-10T04:53:28.699Z,22.73
2018-11-10T04:55:57.162Z,10.37
2018-11-10T04:58:25.624Z,8.30
2018-11-10T05:00:54.075Z,13.60
2018-11-10T05:03:22.534Z,12.63
2018-11-10T05:05:50.991Z,9.93
2018-11-10T05:08:19.464Z,10.00
2018-11-10T05:10:47.943Z,11.03
2018-11-10T05:13:16.405Z,17.00
2018-11-10T05:15:44.878Z,13.63
2018-11-10T05:18:13.348Z,13.40
2018-11-10T05:20:41.818Z,12.67
2018-11-10T05:23:10.271Z,12.30
2018-11-10T05:25:38.722Z,10.90
2018-11-10T05:28:07.179Z,13.33
2018-11-10T05:30:35.727Z,11.60
2018-11-10T05:33:04.244Z,12.23
2018-11-10T05:35:32.730Z,11.23
2018-11-10T05:38:01.182Z,12.00
2018-11-10T05:40:29.643Z,8.90
2018-11-10T05:42:58.107Z,13.13
2018-11-10T05:45:26.574Z,12.37
2018-11-10T05:47:55.019Z,12.00
2018-11-10T05:50:23.478Z,11.83
2018-11-10T05:52:51.951Z,8.27
2018-11-10T05:55:20.416Z,12.50
2018-11-10T05:57:48.882Z,14.90
2018-11-10T06:00:17.471Z,13.40
2018-11-10T06:02:45.947Z,9.63
2018-11-10T06:05:14.466Z,11.10
2018-11-10T06:07:42.926Z,9.53
2018-11-10T06:10:12.356Z,12.80
2018-11-10T06:12:40.930Z,11.20
2018-11-10T06:15:10.340Z,9.50
2018-11-10T06:17:39.119Z,9.00
2018-11-10T06:20:09.576Z,9.17
2018-11-10T06:22:38.026Z,10.40
2018-11-10T06:25:07.299Z,8.73
2018-11-10T06:27:35.775Z,7.73
2018-11-10T06:30:04.902Z,13.20
2018-11-10T06:32:33.419Z,10.33
2018-11-10T06:35:01.888Z,9.77
2018-11-10T06:37:30.364Z,6.40
2018-11-10T06:39:59.132Z,8.70
2018-11-10T06:42:27.639Z,9.00
2018-11-10T06:44:56.090Z,12.23
2018-11-10T06:47:24.547Z,9.43
2018-11-10T06:49:53.018Z,7.33
2018-11-10T06:52:21.470Z,9.63
2018-11-10T06:54:50.011Z,13.27
2018-11-10T06:57:18.470Z,11.60
2018-11-10T06:59:46.935Z,10.60
2018-11-10T07:02:15.401Z,14.20
2018-11-10T07:04:43.846Z,16.57
2018-11-10T07:07:12.304Z,11.00
2018-11-10T07:09:40.771Z,12.97
2018-11-10T07:12:09.218Z,13.40
2018-11-10T07:14:37.666Z,16.20
2018-11-10T07:17:06.179Z,10.97
2018-11-10T07:19:34.627Z,11.80
2018-11-10T07:22:03.099Z,12.90
2018-11-10T07:24:31.590Z,16.23
2018-11-10T07:27:00.055Z,17.17
2018-11-10T07:29:28.519Z,13.47
2018-11-10T07:31:57.042Z,13.70
2018-11-10T07:34:25.526Z,19.70
2018-11-10T07:36:54.028Z,18.37
2018-11-10T07:39:22.494Z,14.77
2018-11-10T07:41:50.970Z,21.67
2018-11-10T07:44:19.435Z,15.40
2018-11-10T07:46:47.890Z,19.67
2018-11-10T07:49:16.448Z,15.70
2018-11-10T07:51:44.847Z,15.50
2018-11-10T07:54:13.295Z,14.47
2018-11-10T07:56:41.751Z,16.00
2018-11-10T07:59:10.199Z,14.67
2018-11-10T08:01:38.658Z,13.90
2018-11-10T08:04:07.115Z,12.10
2018-11-10T08:06:35.583Z,14.17
2018-11-10T08:09:05.175Z,14.50
2018-11-10T08:11:33.626Z,14.63
2018-11-10T08:14:02.089Z,9.70
2018-11-10T08:16:30.536Z,10.60
2018-11-10T08:18:58.986Z,11.50
2018-11-10T08:21:27.474Z,7.53
2018-11-10T08:23:55.951Z,7.87
2018-11-10T08:26:24.418Z,8.13
2018-11-10T08:28:52.870Z,12.57
2018-11-10T08:31:21.370Z,11.63
2018-11-10T08:33:49.834Z,13.33
2018-11-10T08:36:18.318Z,11.63
2018-11-10T08:38:46.774Z,10.17
2018-11-10T08:41:15.451Z,10.93
2018-11-10T08:43:45.019Z,10.40
2018-11-10T08:46:13.491Z,10.73
2018-11-10T08:48:42.043Z,12.80
2018-11-10T08:51:10.514Z,14.73
2018-11-10T08:53:39.002Z,15.47
2018-11-10T08:56:07.812Z,24.23
2018-11-10T08:58:36.620Z,13.80
2018-11-10T09:01:05.127Z,18.17
2018-11-10T09:03:33.621Z,15.37
2018-11-10T09:06:02.154Z,14.43
2018-11-10T09:08:30.627Z,16.63
2018-11-10T09:10:59.107Z,14.47
2018-11-10T09:13:27.590Z,14.20
2018-11-10T09:15:56.071Z,22.20
2018-11-10T09:18:24.619Z,16.03
2018-11-10T09:20:53.096Z,15.13
2018-11-10T09:23:21.587Z,19.20
2018-11-10T09:25:50.070Z,19.00
2018-11-10T09:28:18.537Z,21.50
2018-11-10T09:30:47.023Z,19.27
2018-11-10T09:33:15.488Z,20.07
2018-11-10T09:35:44.055Z,22.30
2018-11-10T09:38:12.538Z,20.37
2018-11-10T09:40:41.020Z,20.30
2018-11-10T09:43:09.478Z,23.40
2018-11-10T09:45:37.994Z,26.50
2018-11-10T09:48:06.553Z,25.83
2018-11-10T09:50:35.074Z,23.57
2018-11-10T09:53:03.519Z,21.77
2018-11-10T09:55:32.094Z,22.83
2018-11-10T09:58:00.566Z,23.40
2018-11-10T10:00:29.035Z,28.37
2018-11-10T10:02:57.500Z,23.67
2018-11-10T10:05:25.996Z,24.00
2018-11-10T10:07:54.472Z,22.03
2018-11-10T10:10:22.941Z,25.80
2018-11-10T10:12:51.411Z,24.17
2018-11-10T10:15:20.162Z,32.00
2018-11-10T10:17:48.810Z,26.43
2018-11-10T10:20:18.447Z,27.50
2018-11-10T10:22:47.676Z,29.67
2018-11-10T10:25:16.855Z,25.57
2018-11-10T10:27:46.565Z,27.10
2018-11-10T10:30:21.304Z,26.03
2018-11-10T10:32:49.930Z,24.73
2018-11-10T10:35:18.703Z,27.30
2018-11-10T10:37:47.862Z,29.60
2018-11-10T10:40:16.655Z,25.67
2018-11-10T10:42:45.883Z,24.00
2018-11-10T10:45:16.820Z,27.60
2018-11-10T10:47:45.587Z,26.53
2018-11-10T10:50:15.349Z,28.07
2018-11-10T10:52:43.878Z,24.27
2018-11-10T10:55:13.557Z,27.40
2018-11-10T10:57:42.787Z,28.27
2018-11-10T11:00:18.051Z,29.10
2018-11-10T11:02:51.998Z,38.90
2018-11-10T11:06:23.237Z,38.07
2018-11-10T11:08:51.907Z,27.33
2018-11-10T11:11:20.333Z,31.57
2018-11-10T11:13:48.838Z,29.60
2018-11-10T11:16:17.325Z,23.10
2018-11-10T11:18:45.882Z,28.30
2018-11-10T11:21:14.370Z,28.27
2018-11-10T11:23:42.842Z,34.90
2018-11-10T11:26:11.310Z,26.80
2018-11-10T11:28:39.799Z,27.57
2018-11-10T11:31:08.299Z,25.67
2018-11-10T11:33:36.760Z,25.83
2018-11-10T11:36:05.267Z,25.93
2018-11-10T11:38:33.762Z,26.83
2018-11-10T11:41:02.258Z,27.33
2018-11-10T11:43:30.775Z,20.70
2018-11-10T11:45:59.295Z,22.17
2018-11-10T11:48:27.762Z,28.10
2018-11-10T11:50:56.219Z,26.30
2018-11-10T11:53:24.702Z,21.80
2018-11-10T11:55:53.175Z,25.10
2018-11-10T11:58:22.002Z,23.10
2018-11-10T12:00:50.482Z,23.80
2018-11-10T12:03:18.933Z,22.50
2018-11-10T12:05:47.402Z,25.87
2018-11-10T12:08:15.862Z,26.60
2018-11-10T12:10:44.349Z,29.40
2018-11-10T12:13:12.814Z,25.90
2018-11-10T12:15:41.281Z,31.83
2018-11-10T12:18:09.744Z,28.67
2018-11-10T12:20:38.218Z,28.27
2018-11-10T12:23:06.690Z,31.90
2018-11-10T12:25:35.178Z,32.97
2018-11-10T12:28:03.679Z,26.40
2018-11-10T12:30:32.223Z,28.40
2018-11-10T12:33:00.704Z,26.63
2018-11-10T12:35:29.187Z,28.53
2018-11-10T12:37:57.662Z,27.33
2018-11-10T12:40:26.129Z,30.57
2018-11-10T12:42:54.606Z,28.13
2018-11-10T12:45:23.082Z,24.57
2018-11-10T12:47:51.546Z,25.90
2018-11-10T12:50:20.001Z,30.83
2018-11-10T12:52:48.500Z,21.70
2018-11-10T12:55:17.033Z,24.97
2018-11-10T12:57:46.238Z,22.43
2018-11-10T13:00:16.182Z,24.53
2018-11-10T13:02:45.252Z,23.53
2018-11-10T13:05:13.852Z,25.03
2018-11-10T13:07:44.008Z,25.63
2018-11-10T13:10:13.103Z,27.33
2018-11-10T13:12:42.271Z,24.83
2018-11-10T13:15:12.082Z,30.57
2018-11-10T13:17:40.806Z,23.27
2018-11-10T13:20:11.610Z,29.90
2018-11-10T13:22:40.067Z,24.90
2018-11-10T13:25:09.627Z,26.90
2018-11-10T13:27:38.170Z,27.00
2018-11-10T13:30:08.099Z,26.10
2018-11-10T13:32:36.650Z,27.80
2018-11-10T13:35:06.730Z,27.00
2018-11-10T13:37:35.214Z,24.17
2018-11-10T13:40:04.608Z,27.47
2018-11-10T13:42:33.339Z,35.23
2018-11-10T13:45:01.850Z,42.60
2018-11-10T13:47:30.457Z,33.83
2018-11-10T13:49:59.214Z,32.73
2018-11-10T13:52:28.084Z,31.83
2018-11-10T13:54:56.151Z,23.90
2018-11-10T13:57:24.618Z,28.80
2018-11-10T13:59:53.095Z,25.23
2018-11-10T14:02:21.559Z,27.53
2018-11-10T14:04:50.019Z,22.73
2018-11-10T14:07:18.492Z,22.70
2018-11-10T14:09:46.955Z,22.03
2018-11-10T14:12:15.414Z,30.93
2018-11-10T14:14:43.870Z,27.87
2018-11-10T14:17:12.338Z,27.73
2018-11-10T14:19:40.791Z,25.77
2018-11-10T14:22:09.243Z,26.07
2018-11-10T14:24:37.708Z,25.10
2018-11-10T14:27:06.183Z,22.47
2018-11-10T14:29:34.668Z,23.93
2018-11-10T14:32:03.134Z,21.73
2018-11-10T14:34:31.594Z,29.70
2018-11-10T14:37:00.064Z,21.03
2018-11-10T14:39:28.530Z,31.07
2018-11-10T14:41:56.990Z,23.87
2018-11-10T14:44:25.450Z,26.13
2018-11-10T14:46:53.926Z,22.90
2018-11-10T14:49:22.399Z,26.87
2018-11-10T14:51:50.879Z,27.40
2018-11-10T14:54:19.366Z,29.00
2018-11-10T14:56:47.834Z,25.80
2018-11-10T14:59:16.323Z,36.60
2018-11-10T15:01:44.847Z,26.53
2018-11-10T15:04:13.404Z,31.57
2018-11-10T15:06:41.886Z,30.50
2018-11-10T15:09:10.924Z,27.00
2018-11-10T15:11:39.453Z,26.80
2018-11-10T15:14:08.062Z,28.70
2018-11-10T15:16:36.946Z,25.80
2018-11-10T15:19:05.582Z,28.47
2018-11-10T15:21:34.051Z,34.67
2018-11-10T15:24:02.521Z,34.40
2018-11-10T15:26:31.171Z,24.83
2018-11-10T15:28:59.638Z,24.50
2018-11-10T15:31:28.091Z,27.60
2018-11-10T15:33:56.571Z,29.80
2018-11-10T15:36:25.039Z,29.20
2018-11-10T15:38:53.504Z,35.43
2018-11-10T15:41:21.955Z,25.50
2018-11-10T15:43:50.426Z,32.03
2018-11-10T15:46:18.907Z,33.80
2018-11-10T15:48:47.354Z,29.63
2018-11-10T15:51:15.806Z,32.47
2018-11-10T15:53:44.254Z,38.60
2018-11-10T15:56:12.719Z,34.63
2018-11-10T15:58:41.195Z,30.70
2018-11-10T16:01:09.704Z,28.63
2018-11-10T16:03:38.166Z,29.67
2018-11-10T16:06:06.650Z,32.23
2018-11-10T16:08:35.113Z,35.57
2018-11-10T16:11:03.587Z,33.77
2018-11-10T16:13:32.115Z,27.20
2018-11-10T16:16:00.639Z,40.50
2018-11-10T16:18:29.110Z,35.20
2018-11-10T16:20:57.619Z,33.73
2018-11-10T16:23:26.042Z,33.67
2018-11-10T16:25:54.510Z,33.30
2018-11-10T16:28:23.025Z,33.80
2018-11-10T16:30:51.451Z,29.77
2018-11-10T16:33:19.934Z,34.17
2018-11-10T16:35:48.383Z,39.77
2018-11-10T16:38:16.843Z,39.37
2018-11-10T16:40:45.331Z,36.07
2018-11-10T16:43:13.798Z,32.40
2018-11-10T16:45:42.258Z,30.10
2018-11-10T16:48:10.725Z,35.40
2018-11-10T16:50:39.195Z,31.40
2018-11-10T16:53:07.660Z,30.53
2018-11-10T16:55:36.194Z,35.17
2018-11-10T16:58:05.059Z,40.80
2018-11-10T17:00:33.982Z,37.63
2018-11-10T17:03:02.442Z,38.83
2018-11-10T17:05:30.971Z,31.40
2018-11-10T17:07:59.423Z,38.93
2018-11-10T17:10:27.871Z,34.50
2018-11-10T17:12:56.327Z,33.93
2018-11-10T17:15:24.816Z,35.97
2018-11-10T17:17:53.311Z,35.43
2018-11-10T17:20:21.777Z,33.40
2018-11-10T17:22:50.240Z,37.27
2018-11-10T17:25:18.690Z,46.97
2018-11-10T17:27:47.183Z,37.60
2018-11-10T17:30:19.237Z,36.40
2018-11-10T17:32:47.635Z,35.80
2018-11-10T17:35:16.176Z,31.23
2018-11-10T17:37:45.200Z,35.10
2018-11-10T17:40:14.476Z,33.23
2018-11-10T17:42:42.872Z,39.13
2018-11-10T17:45:14.856Z,30.90
2018-11-10T17:47:43.727Z,32.40
2018-11-10T17:50:14.264Z,29.53
2018-11-10T17:52:42.917Z,30.40
2018-11-10T17:55:12.894Z,31.53
2018-11-10T17:57:41.976Z,34.33
2018-11-10T18:00:10.554Z,31.87
2018-11-10T18:02:39.015Z,36.37
2018-11-10T18:05:09.098Z,31.63
2018-11-10T18:07:37.572Z,36.23
2018-11-10T18:10:07.821Z,37.90
2018-11-10T18:12:36.299Z,34.87
2018-11-10T18:15:11.787Z,30.30
2018-11-10T18:17:40.760Z,31.43
2018-11-10T18:20:10.566Z,41.77
2018-11-10T18:22:39.038Z,29.73
2018-11-10T18:25:07.799Z,27.50
2018-11-10T18:27:36.211Z,43.70
2018-11-10T18:30:05.960Z,34.87
2018-11-10T18:32:34.527Z,33.50
2018-11-10T18:35:03.889Z,38.17
2018-11-10T18:37:32.417Z,36.27
2018-11-10T18:40:00.918Z,33.47
2018-11-10T18:42:29.349Z,30.90
2018-11-10T18:44:57.806Z,39.50
2018-11-10T18:47:26.310Z,33.80
2018-11-10T18:49:54.795Z,28.13
2018-11-10T18:52:23.564Z,31.20
2018-11-10T18:54:51.971Z,29.20
2018-11-10T18:57:20.525Z,32.37
2018-11-10T18:59:48.927Z,31.87
2018-11-10T19:02:17.406Z,28.43
2018-11-10T19:04:46.050Z,33.63
2018-11-10T19:07:14.519Z,22.37
2018-11-10T19:09:42.979Z,29.60
2018-11-10T19:12:11.432Z,25.33
2018-11-10T19:14:39.893Z,29.50
2018-11-10T19:17:08.368Z,34.40
2018-11-10T19:19:36.845Z,24.73
2018-11-10T19:22:05.885Z,25.53
2018-11-10T19:24:34.358Z,21.80
2018-11-10T19:27:02.838Z,31.77
2018-11-10T19:29:31.343Z,22.93
2018-11-10T19:31:59.800Z,24.27
2018-11-10T19:34:28.298Z,28.83
2018-11-10T19:36:56.751Z,28.60
2018-11-10T19:39:25.220Z,21.60
2018-11-10T19:41:53.918Z,25.10
2018-11-10T19:44:24.202Z,33.80
2018-11-10T19:46:52.671Z,26.30
2018-11-10T19:49:21.130Z,21.20
2018-11-10T19:51:49.897Z,25.17
2018-11-10T19:54:18.100Z,85.60
2018-11-10T19:56:46.562Z,25.60
2018-11-10T19:59:15.035Z,27.97
2018-11-10T20:01:43.491Z,21.00
2018-11-10T20:04:12.041Z,22.30
2018-11-10T20:06:40.574Z,22.10
2018-11-10T20:09:09.986Z,19.00
2018-11-10T20:11:38.468Z,18.43
2018-11-10T20:14:07.154Z,20.27
2018-11-10T20:16:35.547Z,18.90
2018-11-10T20:19:04.047Z,23.57
2018-11-10T20:21:32.529Z,19.10
2018-11-10T20:24:00.985Z,17.47
2018-11-10T20:26:29.446Z,19.40
2018-11-10T20:28:57.906Z,17.30
2018-11-10T20:31:26.378Z,22.50
2018-11-10T20:33:54.842Z,20.33
2018-11-10T20:36:23.316Z,18.70
2018-11-10T20:38:51.835Z,22.80
2018-11-10T20:41:20.255Z,22.53
2018-11-10T20:43:48.714Z,28.30
2018-11-10T20:46:17.307Z,20.10
2018-11-10T20:48:45.770Z,14.60
2018-11-10T20:51:14.313Z,15.60
2018-11-10T20:53:42.972Z,18.43
2018-11-10T20:56:11.443Z,16.37
2018-11-10T20:58:39.903Z,19.30
2018-11-10T21:01:08.372Z,16.13
2018-11-10T21:03:36.827Z,15.57
2018-11-10T21:06:05.347Z,20.97
2018-11-10T21:08:33.794Z,28.00
2018-11-10T21:11:02.255Z,14.60
2018-11-10T21:13:30.723Z,44.67
2018-11-10T21:15:59.211Z,17.90
2018-11-10T21:18:27.666Z,12.33
2018-11-10T21:20:56.106Z,25.93
2018-11-10T21:23:24.580Z,17.90
2018-11-10T21:25:53.079Z,19.40
2018-11-10T21:28:21.601Z,16.57
2018-11-10T21:30:50.071Z,15.60
2018-11-10T21:33:18.584Z,19.13
2018-11-10T21:35:47.042Z,20.80
2018-11-10T21:38:15.551Z,21.50
2018-11-10T21:40:44.016Z,19.23
2018-11-10T21:43:12.466Z,14.47
2018-11-10T21:45:40.934Z,16.30
2018-11-10T21:48:09.383Z,14.87
2018-11-10T21:50:37.838Z,14.87
2018-11-10T21:53:06.328Z,16.73
2018-11-10T21:55:34.799Z,117.43
2018-11-10T21:58:03.254Z,38.67
2018-11-10T22:00:31.718Z,27.47
2018-11-10T22:03:00.186Z,53.63
2018-11-10T22:05:28.635Z,23.43
2018-11-10T22:07:57.104Z,259.03
2018-11-10T22:10:25.643Z,379.80
2018-11-10T22:12:54.106Z,437.03
2018-11-10T22:15:23.330Z,12.67
2018-11-10T22:17:51.962Z,11.30
2018-11-10T22:20:22.538Z,11.93
2018-11-10T22:22:51.032Z,9.20
2018-11-10T22:25:19.490Z,13.83
2018-11-10T22:27:49.429Z,12.23
2018-11-10T22:30:19.161Z,15.90
2018-11-10T22:32:48.222Z,13.70
2018-11-10T22:35:16.698Z,15.27
2018-11-10T22:37:51.416Z,12.97
2018-11-10T22:40:27.711Z,14.30
2018-11-10T22:42:56.459Z,17.03
2018-11-10T22:45:24.906Z,19.10
2018-11-10T22:47:53.760Z,13.23
2018-11-10T22:50:23.595Z,15.60
2018-11-10T22:52:52.048Z,14.87
2018-11-10T22:55:20.644Z,16.40
2018-11-10T22:57:49.109Z,13.80
2018-11-10T23:00:22.703Z,23.93
2018-11-10T23:02:52.437Z,17.60
2018-11-10T23:05:21.410Z,22.97
2018-11-10T23:07:49.896Z,16.07
2018-11-10T23:10:18.691Z,24.53
2018-11-10T23:12:48.194Z,23.03
2018-11-10T23:15:16.659Z,56.00
2018-11-10T23:17:45.115Z,16.17
2018-11-10T23:20:14.786Z,12.60
2018-11-10T23:22:43.379Z,18.27
2018-11-10T23:25:13.154Z,14.57
2018-11-10T23:27:41.621Z,12.80
2018-11-10T23:30:12.253Z,18.10
2018-11-10T23:32:41.060Z,13.23
2018-11-10T23:35:10.378Z,14.83
2018-11-10T23:37:38.914Z,15.60
2018-11-10T23:40:09.024Z,12.80
2018-11-10T23:42:37.523Z,15.30
2018-11-10T23:45:06.896Z,14.57
2018-11-10T23:47:35.514Z,18.10
2018-11-10T23:50:04.318Z,16.80
2018-11-10T23:52:32.891Z,237.80
2018-11-10T23:55:01.367Z,89.67
2018-11-10T23:57:29.867Z,73.33
2018-11-10T23:59:58.327Z,50.90
